createdAt,value
2022-08-04T00:02:15.771Z,108.70588
2022-08-04T00:07:17.204Z,109.14745
2022-08-04T00:12:18.736Z,108.70588
2022-08-04T00:17:20.480Z,107.82979
2022-08-04T00:22:22.734Z,106.96296
2022-08-04T00:27:24.150Z,105.67979
2022-08-04T00:32:34.135Z,104.41667
2022-08-04T00:37:36.107Z,103.17313
2022-08-04T00:42:37.546Z,101.94872
2022-08-04T00:47:51.178Z,100.34518
2022-08-04T00:52:52.932Z,99.94937
2022-08-04T00:57:55.732Z,99.94937
2022-08-04T01:02:57.401Z,99.55556
2022-08-04T01:07:58.865Z,98
2022-08-04T01:13:00.447Z,98
2022-08-04T01:18:02.119Z,97.61596
2022-08-04T01:23:03.590Z,98
2022-08-04T01:28:05.049Z,98.38596
2022-08-04T01:33:08.100Z,98.77387
2022-08-04T01:38:18.311Z,99.16373
2022-08-04T01:43:23.160Z,99.94937
2022-08-04T01:48:24.932Z,100.34518
2022-08-04T01:53:26.378Z,100.743
2022-08-04T01:58:27.872Z,102.35476
2022-08-04T02:04:20.873Z,105.25654
2022-08-04T02:09:24.778Z,105.67979
2022-08-04T02:14:26.260Z,108.70588
2022-08-04T02:19:28.134Z,114.16575
2022-08-04T02:24:29.795Z,114.16575
2022-08-04T02:29:32.181Z,116.54902
2022-08-04T02:34:34.394Z,118.0113
2022-08-04T02:39:41.514Z,119.49858
2022-08-04T02:44:50.368Z,120
2022-08-04T02:49:52.064Z,119
2022-08-04T02:54:54.641Z,118.50425
2022-08-04T02:59:56.406Z,118.50425
2022-08-04T03:04:58.119Z,120
2022-08-04T03:09:59.698Z,119.49858
2022-08-04T03:15:01.362Z,118.50425
2022-08-04T03:20:03.004Z,120.5043
2022-08-04T03:25:04.558Z,119.49858
2022-08-04T03:30:06.065Z,118.0113
2022-08-04T03:35:07.863Z,119.49858
2022-08-04T03:40:10.695Z,119
2022-08-04T03:45:23.032Z,118.50425
2022-08-04T03:50:25.828Z,116.54902
2022-08-04T03:55:27.461Z,119
2022-08-04T04:00:28.996Z,119
2022-08-04T04:05:32.981Z,115.58774
2022-08-04T04:10:43.306Z,115.58774
2022-08-04T04:15:48.223Z,114.63712
2022-08-04T04:20:51.678Z,115.58774
2022-08-04T04:25:53.244Z,114.16575
2022-08-04T04:30:54.688Z,114.63712
2022-08-04T04:35:56.434Z,112.76712
2022-08-04T04:40:57.963Z,110.93767
2022-08-04T04:45:59.431Z,111.3913
2022-08-04T04:51:01.185Z,106.53298
2022-08-04T04:56:02.744Z,106.10526
2022-08-04T05:01:04.312Z,104.83551
2022-08-04T05:06:06.359Z,103.58549
2022-08-04T05:11:07.920Z,102.76289
2022-08-04T05:16:09.478Z,103.58549
2022-08-04T05:21:11.100Z,104
2022-08-04T05:26:12.611Z,104
2022-08-04T05:31:14.101Z,103.17313
2022-08-04T05:36:19.177Z,102.35476
2022-08-04T05:41:32.137Z,104.41667
2022-08-04T05:46:54.562Z,109.5914
2022-08-04T05:51:56.334Z,116.06704
2022-08-04T05:56:57.765Z,116.06704
2022-08-04T06:01:59.329Z,115.58774
2022-08-04T06:07:01.024Z,118.50425
2022-08-04T06:12:04.380Z,119.49858
2022-08-04T06:17:06.220Z,121.52161
2022-08-04T06:23:36.049Z,123.59184
2022-08-04T06:28:55.428Z,125.17647
2022-08-04T06:33:56.871Z,127.33333
2022-08-04T06:38:58.951Z,124.64516
2022-08-04T06:44:00.457Z,126.24852
2022-08-04T06:49:02.287Z,132.3792
2022-08-04T06:54:03.733Z,142.07074
2022-08-04T06:59:05.184Z,144.65147
2022-08-04T07:04:06.936Z,148.65116
2022-08-04T07:09:08.754Z,139.55556
2022-08-04T07:14:10.367Z,145.96721
2022-08-04T07:19:14.780Z,148.65116
2022-08-04T07:24:20.116Z,152.81356
2022-08-04T07:29:21.590Z,160.90141
2022-08-04T07:34:23.051Z,160.90141
2022-08-04T07:39:28.666Z,168.81752
2022-08-04T07:44:30.771Z,158.63415
2022-08-04T07:49:54.207Z,174.71161
2022-08-04T07:54:59.276Z,169.64103
2022-08-04T08:00:01.070Z,159.38462
2022-08-04T08:05:02.821Z,176.45283
2022-08-04T08:10:04.446Z,168
2022-08-04T08:15:05.908Z,167.18841
2022-08-04T08:20:09.708Z,173.85075
2022-08-04T08:25:11.280Z,171.30627
2022-08-04T08:30:12.944Z,187.47826
2022-08-04T08:35:15.869Z,184.625
2022-08-04T08:40:17.839Z,190.4
2022-08-04T08:45:33.896Z,199.60166
2022-08-04T08:50:35.367Z,196.45902
2022-08-04T08:55:36.972Z,194.4065
2022-08-04T09:00:38.535Z,197.49794
2022-08-04T09:05:40.205Z,193.39271
2022-08-04T09:10:42.238Z,203.91561
2022-08-04T09:15:43.814Z,197.49794
2022-08-04T09:20:45.304Z,226.56881
2022-08-04T09:25:47.005Z,222.73303
2022-08-04T09:30:48.670Z,230.51163
2022-08-04T09:35:50.169Z,226.56881
2022-08-04T09:40:53.176Z,220.23318
2022-08-04T09:45:56.930Z,235.94313
2022-08-04T09:50:58.380Z,269.92593
2022-08-04T09:56:03.003Z,261.52577
2022-08-04T10:01:05.135Z,269.92593
2022-08-04T10:06:06.733Z,252
2022-08-04T10:11:09.038Z,275.1828
2022-08-04T10:16:10.511Z,278.78261
2022-08-04T10:21:15.513Z,290.06742
2022-08-04T10:26:17.518Z,288.13408
2022-08-04T10:31:18.975Z,282.46154
2022-08-04T10:36:20.664Z,302.13953
2022-08-04T10:41:22.497Z,284.33149
2022-08-04T10:46:24.010Z,310.66667
2022-08-04T10:51:25.695Z,298.02299
2022-08-04T10:56:27.346Z,336.35669
2022-08-04T11:02:00.838Z,312.86228
2022-08-04T11:07:04.770Z,380.87943
2022-08-04T11:12:07.333Z,365.91781
2022-08-04T11:17:09.046Z,354.66667
2022-08-04T11:22:10.553Z,349.26316
2022-08-04T11:27:12.433Z,315.08434
2022-08-04T11:32:13.987Z,315.08434
2022-08-04T11:37:15.958Z,329
2022-08-04T11:42:17.849Z,354.66667
2022-08-04T11:47:19.523Z,349.26316
2022-08-04T11:52:21.752Z,346.61438
2022-08-04T11:57:25.620Z,349.26316
2022-08-04T12:02:38.460Z,333.87342
2022-08-04T12:07:41.666Z,380.87943
2022-08-04T12:12:43.825Z,466.0339
2022-08-04T12:17:52.672Z,504
2022-08-04T12:22:55.373Z,560
2022-08-04T12:27:57.628Z,484.35088
2022-08-04T12:32:59.481Z,572.57143
2022-08-04T12:38:00.936Z,579.05155
2022-08-04T12:43:02.829Z,560
2022-08-04T12:48:04.384Z,553.90099
2022-08-04T12:53:05.852Z,579.05155
2022-08-04T12:58:07.345Z,620.92308
2022-08-04T13:03:10.223Z,572.57143
2022-08-04T13:08:13.414Z,613.56522
2022-08-04T13:13:15.074Z,714
2022-08-04T13:18:16.736Z,636.13483
2022-08-04T13:23:21.720Z,754.52632
2022-08-04T13:28:23.759Z,668.70588
2022-08-04T13:33:25.245Z,560
2022-08-04T13:38:26.851Z,620.92308
2022-08-04T13:44:16.792Z,686.16867
2022-08-04T13:49:43.073Z,668.70588
2022-08-04T13:55:02.774Z,765.33333
2022-08-04T14:00:04.735Z,799.55556
2022-08-04T14:05:06.403Z,776.43243
2022-08-04T14:10:20.737Z,733.74359
2022-08-04T14:15:22.622Z,787.83562
2022-08-04T14:20:24.335Z,723.74684
2022-08-04T14:25:30.255Z,714
2022-08-04T14:30:37.681Z,799.55556
2022-08-04T14:35:50.147Z,714
2022-08-04T14:40:52.560Z,668.70588
2022-08-04T14:45:55.472Z,498.95495
2022-08-04T14:50:57.495Z,592.42105
2022-08-04T14:55:59.247Z,547.92157
2022-08-04T15:01:01.241Z,547.92157
2022-08-04T15:06:15.286Z,553.90099
2022-08-04T15:11:23.452Z,453.09091
2022-08-04T15:16:25.928Z,461.64706
2022-08-04T15:21:27.561Z,453.09091
2022-08-04T15:26:29.681Z,461.64706
2022-08-04T15:32:06.536Z,384
2022-08-04T15:37:10.723Z,346.61438
2022-08-04T15:42:17.489Z,302.13953
2022-08-04T15:47:23.114Z,244.4878
2022-08-04T15:52:25.170Z,284.33149
2022-08-04T15:57:33.940Z,225.27854
2022-08-04T16:02:36.044Z,189.41833
2022-08-04T16:07:38.066Z,201.74059
2022-08-04T16:12:53.814Z,167.18841
2022-08-04T16:17:56.649Z,174.71161
2022-08-04T16:22:58.402Z,201.74059
2022-08-04T16:28:00.315Z,171.30627
2022-08-04T16:33:02.490Z,170.47059
2022-08-04T16:38:04.182Z,146.63158
2022-08-04T16:43:05.935Z,139.55556
2022-08-04T16:48:08.241Z,142.70968
2022-08-04T16:53:10.024Z,127.8806
2022-08-04T16:58:53.016Z,123.59184
2022-08-04T17:03:57.765Z,139.55556
2022-08-04T17:08:59.604Z,139.55556
2022-08-04T17:14:05.403Z,121.01149
2022-08-04T17:19:24.303Z,125.17647
2022-08-04T17:24:28.410Z,117.52113
2022-08-04T17:29:43.966Z,118.50425
2022-08-04T17:34:46.951Z,120
2022-08-04T17:39:50.762Z,119
2022-08-04T17:44:52.604Z,117.03371
2022-08-04T17:49:54.932Z,120.5043
2022-08-04T17:54:57.535Z,119.49858
2022-08-04T18:00:04.436Z,119
2022-08-04T18:05:11.879Z,121.01149
2022-08-04T18:10:31.087Z,127.8806
2022-08-04T18:15:44.112Z,122.03468
2022-08-04T18:20:50.100Z,115.11111
2022-08-04T18:25:52.424Z,110.93767
2022-08-04T18:30:56.294Z,111.3913
2022-08-04T18:36:32.664Z,117.52113
2022-08-04T18:42:01.416Z,113.23077
2022-08-04T18:47:19.534Z,112.30601
2022-08-04T18:52:31.989Z,113.69697
2022-08-04T18:57:59.001Z,111.84741
2022-08-04T19:03:02.788Z,111.3913
2022-08-04T19:08:33.530Z,107.39523
2022-08-04T19:13:36.998Z,109.14745
2022-08-04T19:18:39.089Z,112.30601
2022-08-04T19:24:10.860Z,122.03468
2022-08-04T19:29:37.125Z,121.01149
2022-08-04T19:34:39.218Z,125.71091
2022-08-04T19:39:41.050Z,125.17647
2022-08-04T19:44:43.835Z,139.55556
2022-08-04T19:50:03.760Z,152.81356
2022-08-04T19:55:10.038Z,148.65116
2022-08-04T20:00:13.258Z,141.4359
2022-08-04T20:05:17.986Z,142.07074
2022-08-04T20:10:52.513Z,140.80511
2022-08-04T20:15:58.086Z,135.90031
2022-08-04T20:21:00.124Z,131.80488
2022-08-04T20:26:02.676Z,124.64516
2022-08-04T20:31:05.206Z,122.03468
2022-08-04T20:36:09.748Z,122.55072
2022-08-04T20:41:11.822Z,124.64516
2022-08-04T20:46:18.189Z,125.17647
2022-08-04T20:51:32.087Z,127.8806
2022-08-04T20:56:35.780Z,125.71091
2022-08-04T21:01:49.000Z,126.78932
2022-08-04T21:06:51.557Z,127.33333
2022-08-04T21:11:53.644Z,127.8806
2022-08-04T21:16:56.458Z,127.8806
2022-08-04T21:21:58.705Z,129.54217
2022-08-04T21:27:01.014Z,127.33333
2022-08-04T21:32:04.077Z,126.24852
2022-08-04T21:37:09.253Z,124.11696
2022-08-04T21:42:28.384Z,124.64516
2022-08-04T21:47:46.361Z,130.66667
2022-08-04T21:52:51.474Z,131.23404
2022-08-04T21:57:54.085Z,133.53846
2022-08-04T22:02:55.941Z,136.5
2022-08-04T22:07:58.421Z,134.12346
2022-08-04T22:13:06.715Z,132.3792
2022-08-04T22:18:12.992Z,129.54217
2022-08-04T22:23:16.861Z,130.66667
2022-08-04T22:28:21.254Z,131.80488
2022-08-04T22:33:54.978Z,135.30435
2022-08-04T22:39:06.484Z,128.98498
2022-08-04T22:44:13.604Z,130.66667
2022-08-04T22:49:17.310Z,131.23404
2022-08-04T22:54:18.956Z,129.54217
2022-08-04T22:59:21.446Z,130.66667
2022-08-04T23:04:23.142Z,131.23404
2022-08-04T23:09:49.159Z,128.43114
2022-08-04T23:14:53.039Z,126.78932
2022-08-04T23:19:57.868Z,128.98498
2022-08-04T23:25:00.441Z,126.78932
2022-08-04T23:30:05.720Z,125.71091
2022-08-04T23:35:07.149Z,127.33333
2022-08-04T23:40:32.278Z,127.33333
2022-08-04T23:46:04.022Z,127.33333
2022-08-04T23:51:15.111Z,128.43114
2022-08-04T23:56:19.678Z,129.54217
